Time;durP1;ratioP1;P1;durP2;ratioP2;P2;SDS_P1;SDS_P2;PMS_P1;PMS_P2;Temp;Humidity;BMP_temperature;BMP_pressure;BME280_temperature;BME280_humidity;BME280_pressure;Samples;Min_cycle;Max_cycle;Signal;HPM_P1;HPM_P2
2023/12/15 00:01:38;;;;;;;20.40;13.43;;;1.20;99.90;;;;;;8272505;28;20218;-68
2023/12/15 00:05:39;;;;;;;27.97;15.50;;;1.20;99.90;;;;;;8272053;28;20195;-68
2023/12/15 00:09:40;;;;;;;24.53;14.43;;;1.10;99.90;;;;;;8270773;28;20191;-71
2023/12/15 00:13:41;;;;;;;21.90;13.90;;;1.10;99.90;;;;;;8269830;28;20231;-68
2023/12/15 00:17:42;;;;;;;21.83;13.77;;;1.10;99.90;;;;;;8272015;28;20215;-67
2023/12/15 00:21:42;;;;;;;20.97;13.80;;;1.20;99.90;;;;;;8267207;28;20198;-67
2023/12/15 00:25:43;;;;;;;23.03;14.97;;;1.20;99.90;;;;;;8270306;28;20265;-67
2023/12/15 00:29:44;;;;;;;25.03;14.87;;;1.20;99.90;;;;;;8271178;28;20202;-67
2023/12/15 00:33:44;;;;;;;22.07;14.30;;;1.20;99.90;;;;;;8269738;28;20214;-67
2023/12/15 00:37:45;;;;;;;23.73;15.33;;;1.10;99.90;;;;;;8270944;28;20183;-66
2023/12/15 00:41:46;;;;;;;26.90;16.77;;;1.10;99.90;;;;;;8270773;28;20211;-68
2023/12/15 00:45:47;;;;;;;25.93;15.27;;;1.10;99.90;;;;;;8266095;28;20207;-67
2023/12/15 00:49:47;;;;;;;23.30;14.93;;;1.10;99.90;;;;;;8272904;28;20198;-66
2023/12/15 00:53:48;;;;;;;20.90;13.07;;;1.10;99.90;;;;;;8270469;28;21328;-67
2023/12/15 00:57:49;;;;;;;20.67;14.20;;;1.10;99.90;;;;;;8260499;28;20520;-67
2023/12/15 01:01:49;;;;;;;22.37;14.70;;;1.10;99.90;;;;;;8267099;28;20198;-67
2023/12/15 01:05:50;;;;;;;19.77;13.10;;;1.20;99.90;;;;;;8267983;28;20310;-67
2023/12/15 01:09:51;;;;;;;19.23;12.60;;;1.20;99.90;;;;;;8268891;28;20423;-67
2023/12/15 01:13:52;;;;;;;22.27;14.67;;;1.20;99.90;;;;;;8263256;28;20273;-67
2023/12/15 01:17:52;;;;;;;23.53;14.53;;;1.20;99.90;;;;;;8267005;28;20179;-67
2023/12/15 01:21:53;;;;;;;21.67;13.90;;;1.20;99.90;;;;;;8270071;28;20187;-67
2023/12/15 01:25:54;;;;;;;21.57;13.30;;;1.20;99.90;;;;;;8269538;28;20787;-67
2023/12/15 01:29:54;;;;;;;20.53;12.83;;;1.20;99.90;;;;;;8267783;28;20195;-67
2023/12/15 01:33:55;;;;;;;20.97;13.40;;;1.20;99.90;;;;;;8266816;28;20211;-67
2023/12/15 01:37:56;;;;;;;19.17;12.63;;;1.30;99.90;;;;;;8264200;28;20191;-67
2023/12/15 01:41:57;;;;;;;21.00;13.33;;;1.30;99.90;;;;;;8268888;28;20210;-67
2023/12/15 01:45:57;;;;;;;20.40;14.17;;;1.30;99.90;;;;;;8268394;28;20202;-67
2023/12/15 01:49:58;;;;;;;19.90;12.47;;;1.30;99.90;;;;;;8267598;28;20302;-68
2023/12/15 01:53:59;;;;;;;22.20;13.63;;;1.40;99.90;;;;;;8263530;28;20214;-66
2023/12/15 01:57:59;;;;;;;20.07;13.13;;;1.40;99.90;;;;;;8269405;28;20187;-67
2023/12/15 02:02:00;;;;;;;19.87;12.73;;;1.30;99.90;;;;;;8267284;28;20219;-68
2023/12/15 02:06:01;;;;;;;21.53;12.90;;;1.30;99.90;;;;;;8264681;28;20191;-67
2023/12/15 02:10:03;;;;;;;17.43;12.17;;;1.30;99.90;;;;;;8264835;28;20237;-68
2023/12/15 02:14:04;;;;;;;20.40;13.10;;;1.30;99.90;;;;;;8267321;28;20223;-67
2023/12/15 02:18:04;;;;;;;18.10;12.47;;;1.30;99.90;;;;;;8279171;28;20249;-67
2023/12/15 02:22:05;;;;;;;19.67;13.07;;;1.30;99.90;;;;;;8272248;28;20191;-67
2023/12/15 02:26:06;;;;;;;18.53;12.50;;;1.30;99.90;;;;;;8277102;28;20191;-66
2023/12/15 02:30:07;;;;;;;21.63;13.13;;;1.30;99.90;;;;;;8289718;28;20207;-67
2023/12/15 02:34:08;;;;;;;19.07;12.90;;;1.30;99.90;;;;;;8277256;28;20292;-67
2023/12/15 02:38:09;;;;;;;20.20;12.13;;;1.20;99.90;;;;;;8272595;28;20255;-67
2023/12/15 02:42:09;;;;;;;17.33;12.27;;;1.20;99.90;;;;;;8276995;28;20242;-67
2023/12/15 02:46:10;;;;;;;20.03;12.73;;;1.20;99.90;;;;;;8266832;28;20298;-67
2023/12/15 02:50:11;;;;;;;19.40;14.10;;;1.20;99.90;;;;;;8278150;28;20195;-67
2023/12/15 02:54:12;;;;;;;21.93;13.80;;;1.20;99.90;;;;;;8275512;28;20215;-67
2023/12/15 02:58:13;;;;;;;22.70;14.30;;;1.20;99.90;;;;;;8242773;28;20586;-67
2023/12/15 03:02:14;;;;;;;26.70;16.50;;;1.20;99.90;;;;;;8238110;28;20188;-67
2023/12/15 03:06:15;;;;;;;28.30;16.83;;;1.20;99.90;;;;;;8244013;28;20188;-67
2023/12/15 03:10:16;;;;;;;25.23;15.70;;;1.20;99.90;;;;;;8239027;28;20196;-69
2023/12/15 03:14:16;;;;;;;24.47;14.57;;;1.20;99.90;;;;;;8258537;28;20354;-67
2023/12/15 03:18:17;;;;;;;23.20;14.67;;;1.20;99.90;;;;;;8240051;28;20190;-68
2023/12/15 03:22:18;;;;;;;22.03;14.90;;;1.20;99.90;;;;;;8242873;28;20203;-67
2023/12/15 03:26:18;;;;;;;23.53;15.37;;;1.20;99.90;;;;;;8245818;28;20275;-67
2023/12/15 03:30:19;;;;;;;21.73;14.23;;;1.20;99.90;;;;;;8244372;28;20192;-66
2023/12/15 03:34:20;;;;;;;21.80;15.00;;;1.20;99.90;;;;;;8240672;28;20451;-67
2023/12/15 03:38:20;;;;;;;21.50;14.77;;;1.20;99.90;;;;;;8242519;28;20197;-66
2023/12/15 03:42:21;;;;;;;22.47;14.57;;;1.20;99.90;;;;;;8234522;28;20212;-65
2023/12/15 03:46:22;;;;;;;22.20;14.63;;;1.20;99.90;;;;;;8237821;28;20195;-66
2023/12/15 03:50:23;;;;;;;21.60;14.37;;;1.20;99.90;;;;;;8250795;28;20219;-67
2023/12/15 03:54:24;;;;;;;26.60;15.97;;;1.20;99.90;;;;;;8240453;28;20228;-67
2023/12/15 03:58:25;;;;;;;27.13;17.57;;;1.20;99.90;;;;;;8237424;28;20228;-66
2023/12/15 04:02:25;;;;;;;25.80;17.13;;;1.10;99.90;;;;;;8238223;28;20192;-67
2023/12/15 04:06:26;;;;;;;26.50;16.30;;;1.00;99.90;;;;;;8242690;28;20303;-67
2023/12/15 04:10:27;;;;;;;25.87;15.80;;;1.00;99.90;;;;;;8240298;28;20193;-67
2023/12/15 04:14:27;;;;;;;25.83;16.53;;;1.00;99.90;;;;;;8239162;28;20247;-66
2023/12/15 04:18:28;;;;;;;22.10;15.10;;;1.00;99.90;;;;;;8242546;28;20192;-67
2023/12/15 04:22:29;;;;;;;22.50;15.30;;;1.00;99.90;;;;;;8237587;28;20193;-66
2023/12/15 04:26:30;;;;;;;24.23;15.83;;;1.00;99.90;;;;;;8243198;28;20791;-67
2023/12/15 04:30:31;;;;;;;28.00;16.60;;;1.10;99.90;;;;;;8240542;28;20278;-67
2023/12/15 04:34:33;;;;;;;25.00;16.37;;;1.00;99.90;;;;;;8241048;28;20215;-68
2023/12/15 04:38:34;;;;;;;22.13;15.30;;;1.10;99.90;;;;;;8233483;28;20347;-67
2023/12/15 04:42:36;;;;;;;23.03;15.30;;;1.00;99.90;;;;;;8241893;28;20223;-68
2023/12/15 04:46:37;;;;;;;26.30;16.27;;;1.00;99.90;;;;;;8234083;28;20203;-68
2023/12/15 04:50:39;;;;;;;30.13;17.43;;;1.00;99.90;;;;;;8246876;28;20247;-68
2023/12/15 04:54:40;;;;;;;24.60;15.40;;;1.00;99.90;;;;;;8238344;28;20219;-67
2023/12/15 04:58:42;;;;;;;26.67;15.90;;;1.00;99.90;;;;;;8235519;28;20326;-68
2023/12/15 05:02:42;;;;;;;27.33;16.17;;;1.00;99.90;;;;;;8239060;28;20291;-67
2023/12/15 05:06:43;;;;;;;22.57;14.50;;;1.00;99.90;;;;;;8234551;28;20211;-67
2023/12/15 05:10:44;;;;;;;22.20;14.57;;;1.00;99.90;;;;;;8238004;28;20250;-67
2023/12/15 05:14:44;;;;;;;23.90;13.63;;;1.10;99.90;;;;;;8234696;28;20326;-68
2023/12/15 05:18:45;;;;;;;20.80;14.00;;;1.10;99.90;;;;;;8238035;28;20188;-67
2023/12/15 05:22:46;;;;;;;22.33;14.03;;;1.10;99.90;;;;;;8240251;28;20286;-67
2023/12/15 05:26:47;;;;;;;22.43;15.40;;;1.10;99.90;;;;;;8237787;28;20188;-67
2023/12/15 05:30:48;;;;;;;23.60;13.37;;;1.20;99.90;;;;;;8241734;28;20230;-67
2023/12/15 05:34:48;;;;;;;20.83;14.03;;;1.20;99.90;;;;;;8233752;28;20911;-67
2023/12/15 05:38:50;;;;;;;21.83;13.50;;;1.20;99.90;;;;;;8243996;28;20206;-67
2023/12/15 05:42:51;;;;;;;20.27;13.27;;;1.20;99.90;;;;;;8237959;28;20212;-68
2023/12/15 05:46:52;;;;;;;20.73;12.37;;;1.20;99.90;;;;;;8239156;28;20282;-67
2023/12/15 05:50:52;;;;;;;22.43;13.23;;;1.20;99.90;;;;;;8235915;28;20195;-67
2023/12/15 05:54:53;;;;;;;21.47;13.43;;;1.20;99.90;;;;;;8237240;28;20746;-67
2023/12/15 05:58:54;;;;;;;19.30;12.03;;;1.20;99.90;;;;;;8235660;28;20192;-67
2023/12/15 06:02:55;;;;;;;16.93;12.23;;;1.20;99.90;;;;;;8238632;28;20199;-68
2023/12/15 06:06:56;;;;;;;21.77;13.37;;;1.30;99.90;;;;;;8249812;28;20196;-68
2023/12/15 06:10:56;;;;;;;21.80;14.77;;;1.30;99.90;;;;;;8233652;28;20227;-68
2023/12/15 06:14:57;;;;;;;28.93;16.47;;;1.30;99.90;;;;;;8239209;28;20330;-68
2023/12/15 06:18:58;;;;;;;29.43;17.37;;;1.40;99.90;;;;;;8236525;28;20196;-68
2023/12/15 06:22:59;;;;;;;26.60;17.10;;;1.40;99.90;;;;;;8236585;28;20221;-68
2023/12/15 06:27:00;;;;;;;27.63;16.83;;;1.50;99.90;;;;;;8251118;28;20217;-68
2023/12/15 06:31:01;;;;;;;29.37;18.00;;;1.50;99.90;;;;;;8235151;28;20195;-68
2023/12/15 06:35:01;;;;;;;25.80;16.13;;;1.50;99.90;;;;;;8235396;28;20200;-68
2023/12/15 06:39:02;;;;;;;27.70;16.97;;;1.50;99.90;;;;;;8233962;28;20192;-68
2023/12/15 06:43:03;;;;;;;30.53;17.77;;;1.50;99.90;;;;;;8234496;28;20220;-67
2023/12/15 06:47:05;;;;;;;31.47;19.53;;;1.50;99.90;;;;;;8238818;28;20271;-67
2023/12/15 06:51:06;;;;;;;31.57;19.93;;;1.50;99.90;;;;;;8233304;28;20195;-66
2023/12/15 06:55:07;;;;;;;29.80;18.63;;;1.50;99.90;;;;;;8236674;28;20223;-68
2023/12/15 06:59:08;;;;;;;31.67;18.53;;;1.40;99.90;;;;;;8238754;28;20208;-68
2023/12/15 07:03:09;;;;;;;26.87;17.33;;;1.40;99.90;;;;;;8236919;28;20215;-68
2023/12/15 07:07:11;;;;;;;28.07;18.00;;;1.30;99.90;;;;;;8246504;28;20195;-68
2023/12/15 07:11:11;;;;;;;29.33;18.67;;;1.30;99.90;;;;;;8243240;28;20210;-68
2023/12/15 07:15:12;;;;;;;27.60;17.50;;;1.40;99.90;;;;;;8242494;28;20253;-68
2023/12/15 07:19:13;;;;;;;32.63;19.47;;;1.40;99.90;;;;;;8239009;28;20195;-68
2023/12/15 07:23:14;;;;;;;29.13;18.83;;;1.60;99.90;;;;;;8244741;28;20211;-68
2023/12/15 07:27:15;;;;;;;28.83;19.90;;;1.90;99.90;;;;;;8242767;28;20274;-67
2023/12/15 07:31:15;;;;;;;34.70;19.90;;;2.00;99.90;;;;;;8243200;28;20195;-67
2023/12/15 07:35:16;;;;;;;30.17;19.33;;;2.00;99.90;;;;;;8244055;28;20222;-68
2023/12/15 07:39:21;;;;;;;35.10;20.43;;;2.00;99.90;;;;;;8252198;28;20180;-67
2023/12/15 07:43:21;;;;;;;31.00;19.50;;;2.00;99.90;;;;;;8246460;28;20218;-67
2023/12/15 07:47:22;;;;;;;32.23;19.80;;;2.10;99.90;;;;;;8243772;28;20208;-67
2023/12/15 07:51:23;;;;;;;33.73;20.43;;;2.10;99.90;;;;;;8244348;28;20194;-67
2023/12/15 07:55:24;;;;;;;32.07;19.60;;;2.00;99.90;;;;;;8251675;28;20293;-68
2023/12/15 07:59:25;;;;;;;32.50;19.70;;;2.00;99.90;;;;;;8245214;28;20242;-67
2023/12/15 08:03:25;;;;;;;30.83;18.90;;;2.00;99.90;;;;;;8247346;28;20191;-67
2023/12/15 08:07:26;;;;;;;30.90;19.20;;;2.10;99.90;;;;;;8246652;28;20195;-67
2023/12/15 08:11:27;;;;;;;30.10;17.70;;;2.10;99.90;;;;;;8244373;28;20215;-68
2023/12/15 08:15:28;;;;;;;28.23;16.80;;;2.10;99.90;;;;;;8244996;28;20218;-66
2023/12/15 08:19:31;;;;;;;28.33;17.70;;;2.10;99.90;;;;;;8241612;28;20215;-67
2023/12/15 08:23:32;;;;;;;23.90;16.23;;;2.20;99.90;;;;;;8244231;28;20196;-67
2023/12/15 08:27:34;;;;;;;26.33;16.47;;;2.20;99.90;;;;;;8244816;28;20204;-67
2023/12/15 08:31:35;;;;;;;26.53;17.67;;;2.30;99.90;;;;;;8242383;28;20594;-68
2023/12/15 08:35:36;;;;;;;27.93;18.13;;;2.30;99.90;;;;;;8243943;28;20215;-67
2023/12/15 08:39:37;;;;;;;29.90;18.07;;;2.40;99.90;;;;;;8239780;28;20208;-66
2023/12/15 08:43:37;;;;;;;26.07;16.90;;;2.50;99.90;;;;;;8239136;28;20544;-66
2023/12/15 08:47:38;;;;;;;29.47;18.20;;;2.60;99.90;;;;;;8235929;28;20202;-66
2023/12/15 08:51:39;;;;;;;25.40;16.77;;;2.70;99.90;;;;;;8248694;28;20215;-67
2023/12/15 08:55:40;;;;;;;23.60;17.43;;;2.80;99.90;;;;;;8262642;28;20408;-67
2023/12/15 08:59:40;;;;;;;28.97;19.23;;;2.70;99.90;;;;;;8235748;28;20196;-67
2023/12/15 09:03:41;;;;;;;26.47;17.67;;;2.60;99.90;;;;;;8247923;28;20192;-67
2023/12/15 09:07:42;;;;;;;33.87;21.70;;;2.40;99.90;;;;;;8235806;28;20206;-66
2023/12/15 09:11:43;;;;;;;28.07;18.30;;;2.40;99.90;;;;;;8233856;28;20196;-69
2023/12/15 09:15:43;;;;;;;29.17;18.70;;;2.50;99.90;;;;;;8239108;28;20253;-68
2023/12/15 09:19:45;;;;;;;27.13;16.57;;;2.50;99.90;;;;;;8237254;28;20188;-68
2023/12/15 09:23:47;;;;;;;26.57;17.77;;;2.50;99.90;;;;;;8234172;28;20203;-68
2023/12/15 09:27:48;;;;;;;30.50;18.00;;;2.40;99.90;;;;;;8250552;28;20188;-67
2023/12/15 09:31:48;;;;;;;28.00;16.07;;;2.50;99.90;;;;;;8242132;28;20230;-69
2023/12/15 09:35:53;;;;;;;22.43;14.83;;;2.70;99.90;;;;;;8236065;28;20733;-68
2023/12/15 09:39:54;;;;;;;23.00;15.60;;;2.60;99.90;;;;;;8238568;28;20188;-67
2023/12/15 09:43:55;;;;;;;22.97;14.80;;;2.50;99.90;;;;;;8237213;28;20362;-70
2023/12/15 09:47:58;;;;;;;22.00;15.10;;;2.40;99.90;;;;;;8236515;28;20237;-66
2023/12/15 09:52:02;;;;;;;26.57;14.57;;;2.30;99.90;;;;;;8242527;28;20211;-68
2023/12/15 09:56:04;;;;;;;20.53;13.33;;;2.60;99.90;;;;;;8240584;28;20503;-68
2023/12/15 10:00:07;;;;;;;18.03;12.27;;;2.70;99.90;;;;;;8232206;28;20189;-67
2023/12/15 10:04:07;;;;;;;17.07;12.40;;;2.80;99.90;;;;;;8234032;28;20211;-69
2023/12/15 10:08:08;;;;;;;18.43;13.43;;;2.70;99.90;;;;;;8239548;28;20192;-68
2023/12/15 10:12:10;;;;;;;17.17;11.87;;;2.80;99.90;;;;;;8236680;28;20250;-68
2023/12/15 10:16:11;;;;;;;16.90;11.97;;;2.90;99.90;;;;;;8239379;28;20265;-66
2023/12/15 10:20:12;;;;;;;17.87;12.70;;;3.00;99.90;;;;;;8257095;28;20221;-67
2023/12/15 10:24:24;;;;;;;16.70;11.27;;;3.20;99.90;;;;;;8237132;28;20188;-67
2023/12/15 10:28:25;;;;;;;19.47;11.17;;;3.30;99.90;;;;;;8237724;28;20215;-67
2023/12/15 10:32:26;;;;;;;17.53;10.63;;;3.30;99.90;;;;;;8237054;28;20195;-71
2023/12/15 10:36:26;;;;;;;16.47;12.23;;;3.40;99.90;;;;;;8241667;28;20266;-68
2023/12/15 10:40:27;;;;;;;14.63;10.03;;;3.40;99.90;;;;;;8241592;28;20180;-69
2023/12/15 10:44:30;;;;;;;14.17;9.67;;;3.40;99.90;;;;;;8239258;28;20207;-67
2023/12/15 10:48:33;;;;;;;15.47;10.83;;;3.40;99.90;;;;;;8246938;28;20196;-67
2023/12/15 10:52:36;;;;;;;13.67;9.80;;;3.30;99.90;;;;;;8236759;28;20187;-69
2023/12/15 10:56:40;;;;;;;12.33;9.90;;;3.20;99.90;;;;;;8242239;28;20187;-68
2023/12/15 11:00:41;;;;;;;16.30;10.73;;;3.30;99.90;;;;;;8245117;28;20255;-69
2023/12/15 11:04:42;;;;;;;14.67;11.43;;;3.50;99.90;;;;;;8255373;28;20195;-69
2023/12/15 11:08:43;;;;;;;14.70;10.73;;;3.80;99.90;;;;;;8243033;28;20382;-68
2023/12/15 11:12:44;;;;;;;14.20;10.50;;;3.90;99.90;;;;;;8241258;28;20567;-68
2023/12/15 11:16:45;;;;;;;16.40;10.97;;;3.90;99.90;;;;;;8239107;28;20184;-69
2023/12/15 11:20:50;;;;;;;15.33;10.27;;;3.80;99.90;;;;;;8241961;28;20238;-71
2023/12/15 11:24:50;;;;;;;14.97;11.03;;;3.80;99.90;;;;;;8242856;28;20282;-71
2023/12/15 11:28:55;;;;;;;14.50;9.57;;;3.80;99.90;;;;;;8237324;28;20250;-70
2023/12/15 11:32:56;;;;;;;13.70;9.73;;;3.60;99.90;;;;;;8256356;28;20223;-69
2023/12/15 11:36:57;;;;;;;14.17;10.53;;;3.70;99.90;;;;;;8249858;28;20272;-70
2023/12/15 11:40:59;;;;;;;15.13;9.93;;;3.90;99.90;;;;;;8239247;28;21060;-69
2023/12/15 11:45:00;;;;;;;14.13;9.50;;;4.00;99.90;;;;;;8258333;28;20200;-68
2023/12/15 11:49:01;;;;;;;10.70;8.23;;;3.90;99.90;;;;;;8239764;28;20250;-67
2023/12/15 11:53:09;;;;;;;10.33;7.57;;;3.80;99.90;;;;;;8245828;28;20219;-70
2023/12/15 11:57:10;;;;;;;14.97;8.83;;;3.70;99.90;;;;;;8245146;28;20188;-67
2023/12/15 12:01:11;;;;;;;13.17;8.73;;;3.80;99.90;;;;;;8239524;28;20218;-69
2023/12/15 12:05:12;;;;;;;8.97;7.00;;;3.90;99.90;;;;;;8239930;28;20194;-69
2023/12/15 12:09:13;;;;;;;8.40;6.67;;;3.80;99.90;;;;;;8258876;28;20192;-66
2023/12/15 12:13:15;;;;;;;9.87;7.53;;;3.70;99.90;;;;;;8248308;28;20219;-66
2023/12/15 12:17:16;;;;;;;12.93;7.50;;;3.70;99.90;;;;;;8248429;28;20308;-67
2023/12/15 12:21:19;;;;;;;10.73;9.20;;;3.60;99.90;;;;;;8244270;28;20263;-66
2023/12/15 12:25:20;;;;;;;11.20;7.33;;;3.60;99.90;;;;;;8253076;28;20202;-67
2023/12/15 12:29:21;;;;;;;9.37;7.10;;;3.70;99.90;;;;;;8230078;28;20203;-66
2023/12/15 12:33:24;;;;;;;8.37;6.10;;;3.60;99.90;;;;;;8243146;28;20215;-66
2023/12/15 12:37:25;;;;;;;9.03;6.13;;;3.70;99.90;;;;;;8239277;28;20192;-68
2023/12/15 12:41:26;;;;;;;11.30;6.30;;;3.70;99.90;;;;;;8240497;28;20207;-68
2023/12/15 12:45:27;;;;;;;7.10;5.50;;;3.60;99.90;;;;;;8254367;28;20191;-68
2023/12/15 12:49:28;;;;;;;8.60;6.17;;;3.60;99.90;;;;;;8241139;28;20191;-67
2023/12/15 12:53:29;;;;;;;9.50;6.57;;;3.70;99.90;;;;;;8247744;28;20218;-66
2023/12/15 12:57:30;;;;;;;8.90;6.20;;;3.60;99.90;;;;;;8240966;28;20195;-67
2023/12/15 13:01:31;;;;;;;10.93;6.60;;;3.60;99.90;;;;;;8242473;28;20184;-66
2023/12/15 13:05:32;;;;;;;9.63;6.50;;;3.60;99.90;;;;;;8244681;28;20250;-68
2023/12/15 13:09:34;;;;;;;12.97;7.10;;;3.80;99.90;;;;;;8235950;28;20200;-67
2023/12/15 13:13:35;;;;;;;9.67;6.90;;;3.70;99.90;;;;;;8241920;28;20207;-69
2023/12/15 13:17:36;;;;;;;8.47;6.67;;;3.70;99.90;;;;;;8239616;28;20196;-69
2023/12/15 13:21:37;;;;;;;8.87;6.97;;;3.60;99.90;;;;;;8234812;28;20346;-70
2023/12/15 13:25:38;;;;;;;11.60;6.37;;;3.60;99.90;;;;;;8237299;28;20221;-69
2023/12/15 13:29:39;;;;;;;10.30;7.17;;;3.60;99.90;;;;;;8236725;28;20199;-69
2023/12/15 13:33:46;;;;;;;9.73;7.33;;;3.60;99.90;;;;;;8238950;28;20238;-68
2023/12/15 13:37:46;;;;;;;9.17;7.00;;;3.60;99.90;;;;;;8248272;28;20266;-66
2023/12/15 13:41:50;;;;;;;10.70;7.87;;;3.60;99.90;;;;;;8257403;28;20361;-66
2023/12/15 13:45:52;;;;;;;12.33;8.20;;;3.60;99.90;;;;;;8263307;28;20210;-67
2023/12/15 13:49:52;;;;;;;12.43;8.93;;;3.50;99.90;;;;;;8270455;28;20191;-65
2023/12/15 13:53:56;;;;;;;10.97;8.63;;;3.50;99.90;;;;;;8268006;28;20219;-65
2023/12/15 13:57:57;;;;;;;13.00;8.67;;;3.50;99.90;;;;;;8260138;28;20398;-66
2023/12/15 14:01:58;;;;;;;13.00;9.00;;;3.50;99.90;;;;;;8267801;28;20192;-65
2023/12/15 14:05:59;;;;;;;12.03;9.00;;;3.40;99.90;;;;;;8258914;28;20229;-64
2023/12/15 14:10:00;;;;;;;15.87;9.57;;;3.40;99.90;;;;;;8266140;28;20341;-65
2023/12/15 14:14:01;;;;;;;14.03;10.27;;;3.50;99.90;;;;;;8265458;28;20219;-64
2023/12/15 14:18:02;;;;;;;13.03;9.63;;;3.40;99.90;;;;;;8267919;28;20191;-66
2023/12/15 14:22:04;;;;;;;16.00;9.73;;;3.30;99.90;;;;;;8264033;28;20267;-65
2023/12/15 14:26:05;;;;;;;12.20;8.83;;;3.30;99.90;;;;;;8267022;28;20203;-64
2023/12/15 14:30:07;;;;;;;13.07;9.17;;;3.40;99.90;;;;;;8267560;28;20982;-65
2023/12/15 14:34:08;;;;;;;13.73;8.97;;;3.40;99.90;;;;;;8270241;28;20239;-66
2023/12/15 14:38:09;;;;;;;14.20;9.67;;;3.40;99.90;;;;;;8271864;28;20184;-67
2023/12/15 14:42:10;;;;;;;13.40;9.00;;;3.40;99.90;;;;;;8283872;28;20218;-67
2023/12/15 14:46:11;;;;;;;14.63;9.60;;;3.40;99.90;;;;;;8265850;28;20207;-67
2023/12/15 14:50:12;;;;;;;20.00;11.67;;;3.40;99.90;;;;;;8275723;28;20199;-67
2023/12/15 14:54:13;;;;;;;17.33;11.67;;;3.40;99.90;;;;;;8270698;28;20246;-67
2023/12/15 14:58:14;;;;;;;19.80;12.67;;;3.40;99.90;;;;;;8273175;28;20191;-67
2023/12/15 15:02:15;;;;;;;15.50;11.67;;;3.40;99.90;;;;;;8268504;28;20290;-69
2023/12/15 15:06:16;;;;;;;16.90;11.33;;;3.40;99.90;;;;;;8269279;28;20290;-68
2023/12/15 15:10:16;;;;;;;19.77;13.23;;;3.40;99.90;;;;;;8258233;28;20231;-67
2023/12/15 15:14:17;;;;;;;18.60;12.53;;;3.30;99.90;;;;;;8273757;28;20221;-67
2023/12/15 15:18:20;;;;;;;20.17;12.13;;;3.30;99.90;;;;;;8274308;28;20194;-67
2023/12/15 15:22:21;;;;;;;19.30;11.37;;;3.30;99.90;;;;;;8267440;28;20219;-66
2023/12/15 15:26:22;;;;;;;17.47;11.47;;;3.20;99.90;;;;;;8271035;28;20435;-66
2023/12/15 15:30:22;;;;;;;18.90;11.97;;;3.20;99.90;;;;;;8277422;28;20191;-65
2023/12/15 15:34:23;;;;;;;19.40;12.40;;;3.20;99.90;;;;;;8278720;28;20210;-66
2023/12/15 15:38:24;;;;;;;21.13;11.97;;;3.10;99.90;;;;;;8290511;28;20238;-67
2023/12/15 15:42:25;;;;;;;18.90;12.23;;;3.10;99.90;;;;;;8270694;28;20640;-67
2023/12/15 15:46:26;;;;;;;18.70;12.07;;;3.00;99.90;;;;;;8274039;28;20368;-67
2023/12/15 15:50:27;;;;;;;20.97;11.83;;;3.00;99.90;;;;;;8271422;28;20188;-67
2023/12/15 15:54:28;;;;;;;18.80;12.13;;;2.90;99.90;;;;;;8268370;28;20218;-67
2023/12/15 15:58:29;;;;;;;23.10;13.97;;;3.00;99.90;;;;;;8273275;28;20214;-64
2023/12/15 16:02:31;;;;;;;20.57;12.57;;;3.10;99.90;;;;;;8274464;28;20757;-65
2023/12/15 16:06:31;;;;;;;21.60;13.90;;;3.20;99.90;;;;;;8270422;28;20531;-66
2023/12/15 16:10:32;;;;;;;19.43;11.90;;;3.30;99.90;;;;;;8265201;28;20196;-65
2023/12/15 16:14:33;;;;;;;19.90;12.93;;;3.40;99.90;;;;;;8270419;28;20605;-66
2023/12/15 16:18:34;;;;;;;20.83;13.17;;;3.50;99.90;;;;;;8273145;28;20191;-66
2023/12/15 16:22:35;;;;;;;23.43;13.27;;;3.60;99.90;;;;;;8285114;28;20191;-67
2023/12/15 16:26:37;;;;;;;19.33;12.93;;;3.60;99.90;;;;;;8277901;28;20228;-67
2023/12/15 16:30:38;;;;;;;21.60;13.67;;;3.60;99.90;;;;;;8272026;28;20192;-68
2023/12/15 16:34:39;;;;;;;19.60;13.03;;;3.70;99.90;;;;;;8272510;28;20260;-66
2023/12/15 16:38:40;;;;;;;19.77;13.07;;;3.70;99.90;;;;;;8271980;28;20187;-66
2023/12/15 16:42:44;;;;;;;18.17;12.83;;;3.70;99.90;;;;;;8274319;28;20262;-67
2023/12/15 16:46:45;;;;;;;21.83;13.57;;;3.70;99.90;;;;;;8270856;28;20207;-67
2023/12/15 16:50:46;;;;;;;18.57;12.70;;;3.80;99.90;;;;;;8266472;28;20199;-67
2023/12/15 16:54:47;;;;;;;18.73;11.73;;;3.80;99.90;;;;;;8266520;28;20219;-68
2023/12/15 16:58:48;;;;;;;19.23;12.47;;;3.80;99.90;;;;;;8271329;28;20199;-68
2023/12/15 17:02:49;;;;;;;19.53;12.63;;;3.90;99.90;;;;;;8269510;28;20229;-68
2023/12/15 17:06:49;;;;;;;18.83;12.23;;;3.90;99.90;;;;;;8269121;28;20198;-68
2023/12/15 17:10:50;;;;;;;18.43;12.27;;;3.90;99.90;;;;;;8265293;28;20197;-68
2023/12/15 17:14:51;;;;;;;19.70;12.93;;;3.90;99.90;;;;;;8270706;28;20218;-68
2023/12/15 17:18:52;;;;;;;20.27;13.20;;;3.90;99.90;;;;;;8279966;28;20171;-68
2023/12/15 17:22:53;;;;;;;20.03;13.50;;;3.80;99.90;;;;;;8276046;28;20198;-69
2023/12/15 17:26:54;;;;;;;20.73;13.83;;;3.80;99.90;;;;;;8265802;28;20279;-68
2023/12/15 17:30:54;;;;;;;20.80;13.30;;;3.90;99.90;;;;;;8268556;28;20183;-68
2023/12/15 17:34:55;;;;;;;22.73;13.90;;;3.90;99.90;;;;;;8275441;28;20375;-68
2023/12/15 17:38:56;;;;;;;20.23;13.60;;;3.90;99.90;;;;;;8268810;28;20196;-70
2023/12/15 17:42:57;;;;;;;20.57;13.27;;;3.90;99.90;;;;;;8269784;28;20268;-68
2023/12/15 17:46:57;;;;;;;19.03;11.60;;;3.90;99.90;;;;;;8271635;28;20203;-68
2023/12/15 17:50:59;;;;;;;20.23;12.13;;;4.00;99.90;;;;;;8267463;28;20195;-69
2023/12/15 17:55:00;;;;;;;21.60;12.17;;;4.10;99.90;;;;;;8268574;28;20207;-69
2023/12/15 17:59:00;;;;;;;18.33;11.90;;;4.10;99.90;;;;;;8268039;28;20197;-70
2023/12/15 18:03:01;;;;;;;18.80;11.53;;;4.10;99.90;;;;;;8273460;28;20191;-68
2023/12/15 18:07:03;;;;;;;15.03;11.03;;;4.10;99.90;;;;;;8265750;28;20215;-68
2023/12/15 18:11:03;;;;;;;15.80;10.70;;;4.20;99.90;;;;;;8270955;28;20191;-67
2023/12/15 18:15:06;;;;;;;19.50;11.30;;;4.20;99.90;;;;;;8273147;28;20206;-70
2023/12/15 18:19:07;;;;;;;14.90;10.53;;;4.20;99.90;;;;;;8286114;28;20274;-70
2023/12/15 18:23:08;;;;;;;17.07;10.97;;;4.20;99.90;;;;;;8267829;28;20198;-68
2023/12/15 18:27:10;;;;;;;16.60;11.17;;;4.30;99.90;;;;;;8270292;28;20188;-71
2023/12/15 18:31:11;;;;;;;17.17;10.77;;;4.30;99.90;;;;;;8268658;28;20187;-68
2023/12/15 18:35:12;;;;;;;16.87;10.47;;;4.30;99.90;;;;;;8272104;28;20218;-69
2023/12/15 18:39:13;;;;;;;15.33;10.53;;;4.20;99.90;;;;;;8276380;28;20257;-67
2023/12/15 18:43:14;;;;;;;14.53;9.83;;;4.30;99.90;;;;;;8266402;28;20249;-69
2023/12/15 18:47:15;;;;;;;16.67;11.17;;;4.30;99.90;;;;;;8267135;28;20527;-68
2023/12/15 18:51:21;;;;;;;16.20;10.83;;;4.40;99.90;;;;;;8267121;28;20282;-68
2023/12/15 18:55:22;;;;;;;16.37;11.00;;;4.30;99.90;;;;;;8268069;28;20203;-68
2023/12/15 18:59:23;;;;;;;17.07;10.60;;;4.30;99.90;;;;;;8271786;28;20265;-71
2023/12/15 19:03:24;;;;;;;17.30;9.87;;;4.30;99.90;;;;;;8267611;28;20194;-69
2023/12/15 19:07:28;;;;;;;16.23;9.93;;;4.30;99.90;;;;;;8270183;28;20195;-70
2023/12/15 19:11:32;;;;;;;16.60;10.90;;;4.30;99.90;;;;;;8270980;28;20191;-68
2023/12/15 19:15:33;;;;;;;17.40;10.50;;;4.30;99.90;;;;;;8267179;28;20235;-69
2023/12/15 19:19:35;;;;;;;19.13;11.23;;;4.30;99.90;;;;;;8268667;28;20183;-67
2023/12/15 19:23:36;;;;;;;17.87;10.80;;;4.30;99.90;;;;;;8273578;28;20187;-67
2023/12/15 19:27:36;;;;;;;20.20;10.80;;;4.30;99.90;;;;;;8268853;28;20337;-67
2023/12/15 19:31:40;;;;;;;24.47;12.13;;;4.30;99.90;;;;;;8273455;28;20187;-69
2023/12/15 19:35:41;;;;;;;20.53;12.57;;;4.30;99.90;;;;;;8270668;28;20222;-68
2023/12/15 19:39:43;;;;;;;22.63;12.00;;;4.30;99.90;;;;;;8270855;28;20230;-69
2023/12/15 19:43:44;;;;;;;20.83;12.30;;;4.30;99.90;;;;;;8286458;28;20238;-70
2023/12/15 19:47:45;;;;;;;21.00;12.43;;;4.30;99.90;;;;;;8286549;28;20289;-69
2023/12/15 19:51:48;;;;;;;16.50;11.07;;;4.30;99.90;;;;;;8271437;28;20192;-67
2023/12/15 19:55:49;;;;;;;18.80;12.33;;;4.30;99.90;;;;;;8269860;28;20295;-66
2023/12/15 19:59:50;;;;;;;17.53;12.30;;;4.30;99.90;;;;;;8287156;28;20198;-67
2023/12/15 20:03:51;;;;;;;22.13;12.87;;;4.30;99.90;;;;;;8284534;28;20215;-67
2023/12/15 20:07:52;;;;;;;22.80;13.57;;;4.40;99.90;;;;;;8271938;28;20473;-66
2023/12/15 20:11:57;;;;;;;20.27;12.13;;;4.40;99.90;;;;;;8263780;28;20191;-67
2023/12/15 20:15:58;;;;;;;20.93;12.93;;;4.40;99.90;;;;;;8270814;28;20216;-66
2023/12/15 20:19:59;;;;;;;17.03;10.97;;;4.40;99.90;;;;;;8266783;28;20210;-66
2023/12/15 20:23:59;;;;;;;19.33;11.87;;;4.40;99.90;;;;;;8271454;28;20198;-66
2023/12/15 20:28:00;;;;;;;19.73;11.93;;;4.40;99.90;;;;;;8272576;28;20179;-67
2023/12/15 20:32:04;;;;;;;16.23;11.17;;;4.30;99.90;;;;;;8279300;28;20197;-66
2023/12/15 20:36:06;;;;;;;19.37;11.50;;;4.30;99.90;;;;;;8255093;28;20219;-66
2023/12/15 20:40:10;;;;;;;20.70;11.73;;;4.30;99.90;;;;;;8264300;28;20217;-67